Startpagina
METAR-TAF:

METAR-TAF

Vliegvelden :

Cannes, Frankrijk

breedte: 43-33N, lengte: 006-57E, hoogte: 3 m

Actueel weer

Dit bericht is 10 minuten geleden gemaakt, om 22:30 UTC
Wind 17 kt uit het westen
Temperatuur 18°C
Vochtigheid 30%
Druk 1010 hPa
Zicht 10 km of meer
geen wolken onder 1500 m en geen cumulonimbus

METAR: LFMD 052230Z AUTO 27017KT CAVOK 18/M00 Q1010 BECMG 27015G25KT

Tijdstip: 00:40 (22:40 UTC)

Verwachting

Dit bericht is 8 uur en het 40 minuten geleden gemaakt, om 14:00 UTC
Verwachting geldig van 05 om 15 UTC tot 06 om 15 UTC
Wind 15 kt uit het westen met uitschieters tot 25 kt
Zicht 10 km of meer
geen wolken onder 1500 m en geen cumulonimbus

TAF: LFMD 051400Z 0515/0615 27015G25KT CAVOK

Waarnemingen en weersverwachtingen van meer dan 4000 vliegvelden (METAR en TAF).

De beschikbare stations zijn de gele en rode punten op de kaart.

Ga met uw muis naar het station om de naam te zien.

Klik dan om waarnemingen en weersverwachtingen te zien.

kaart wijzigen: klik op de groene knoppen met een zwart kruis om in te zoomen, op de groene knop met een streepje om uit te zoomen of op de groene pijlen voor aangrenzende kaarten.


METAR-TAF: